createdAt,value
2022-08-05T00:00:00.315Z,4.43
2022-08-05T00:02:27.889Z,5.67
2022-08-05T00:04:56.251Z,3.57
2022-08-05T00:07:59.762Z,7.13
2022-08-05T00:10:11.245Z,4.83
2022-08-05T00:12:56.667Z,5.50
2022-08-05T00:15:55.431Z,3.33
2022-08-05T00:18:21.566Z,5.40
2022-08-05T00:20:49.748Z,3.97
2022-08-05T00:23:16.952Z,7.40
2022-08-05T00:25:46.182Z,3.67
2022-08-05T00:28:13.806Z,4.67
2022-08-05T00:30:41.183Z,5.77
2022-08-05T00:34:41.944Z,5.50
2022-08-05T00:36:16.049Z,7.27
2022-08-05T00:38:45.662Z,4.37
2022-08-05T00:41:13.331Z,9.40
2022-08-05T00:43:47.008Z,7.67
2022-08-05T00:46:14.679Z,6.33
2022-08-05T00:48:50.768Z,4.73
2022-08-05T00:51:50.547Z,5.03
2022-08-05T00:54:06.390Z,6.73
2022-08-05T00:56:39.580Z,5.07
2022-08-05T00:59:18.873Z,5.87
2022-08-05T01:01:48.660Z,5.77
2022-08-05T01:04:16.428Z,7.40
2022-08-05T01:06:49.046Z,4.57
2022-08-05T01:09:20.173Z,7.27
2022-08-05T01:11:49.873Z,4.63
2022-08-05T01:14:27.818Z,4.90
2022-08-05T01:17:14.715Z,4.80
2022-08-05T01:20:01.764Z,3.93
2022-08-05T01:22:49.747Z,5.43
2022-08-05T01:25:16.916Z,6.77
2022-08-05T01:28:00.755Z,5.63
2022-08-05T01:30:34.193Z,5.13
2022-08-05T01:33:04.332Z,6.70
2022-08-05T01:35:51.920Z,4.60
2022-08-05T01:38:24.890Z,4.20
2022-08-05T01:40:58.206Z,4.97
2022-08-05T01:43:26.405Z,3.97
2022-08-05T01:45:56.284Z,5.07
2022-08-05T01:48:24.367Z,7.67
2022-08-05T01:50:52.042Z,5.80
2022-08-05T01:53:54.753Z,4.80
2022-08-05T01:56:10.109Z,6.07
2022-08-05T01:58:44.706Z,7.83
2022-08-05T02:01:14.058Z,9.10
2022-08-05T02:03:45.648Z,6.30
2022-08-05T02:06:37.996Z,7.93
2022-08-05T02:09:00.298Z,8.20
2022-08-05T02:11:34.149Z,9.03
2022-08-05T02:14:16.971Z,9.53
2022-08-05T02:16:52.853Z,7.77
2022-08-05T02:19:33.511Z,7.47
2022-08-05T02:22:06.545Z,9.53
2022-08-05T02:24:37.441Z,11.23
2022-08-05T02:27:09.131Z,7.37
2022-08-05T02:29:59.037Z,8.30
2022-08-05T02:32:30.951Z,6.97
2022-08-05T02:35:13.383Z,7.43
2022-08-05T02:37:42.241Z,8.77
2022-08-05T02:40:16.289Z,9.87
2022-08-05T02:42:43.669Z,8.30
2022-08-05T02:45:21.245Z,13.67
2022-08-05T02:48:07.073Z,9.30
2022-08-05T02:50:46.977Z,9.17
2022-08-05T02:53:18.991Z,9.73
2022-08-05T02:55:52.114Z,8.83
2022-08-05T02:58:23.656Z,9.33
2022-08-05T03:00:55.979Z,8.77
2022-08-05T03:03:23.851Z,10.47
2022-08-05T03:06:56.226Z,10.47
2022-08-05T03:08:42.371Z,9.67
2022-08-05T03:11:55.787Z,10.97
2022-08-05T03:14:10.017Z,8.60
2022-08-05T03:16:40.847Z,8.17
2022-08-05T03:19:12.873Z,8.33
2022-08-05T03:21:55.190Z,7.20
2022-08-05T03:24:29.630Z,8.90
2022-08-05T03:26:58.149Z,10.17
2022-08-05T03:29:44.759Z,8.80
2022-08-05T03:32:14.439Z,10.73
2022-08-05T03:34:42.403Z,8.10
2022-08-05T03:37:18.585Z,10.57
2022-08-05T03:40:01.248Z,8.93
2022-08-05T03:42:31.963Z,9.50
2022-08-05T03:44:59.721Z,10.77
2022-08-05T03:47:30.590Z,9.93
2022-08-05T03:50:02.770Z,11.53
2022-08-05T03:52:49.156Z,11.80
2022-08-05T03:56:05.518Z,11.10
2022-08-05T03:58:11.765Z,10.90
2022-08-05T04:00:42.090Z,11.23
2022-08-05T04:03:14.832Z,11.50
2022-08-05T04:05:54.014Z,12.63
2022-08-05T04:08:30.106Z,11.33
2022-08-05T04:11:03.548Z,11.73
2022-08-05T04:13:51.123Z,13.70
2022-08-05T04:16:25.320Z,13.90
2022-08-05T04:18:59.933Z,12.67
2022-08-05T04:22:09.623Z,13.00
2022-08-05T04:24:19.663Z,16.73
2022-08-05T04:26:49.346Z,16.03
2022-08-05T04:29:16.465Z,14.27
2022-08-05T04:31:43.587Z,14.27
2022-08-05T04:34:19.616Z,13.70
2022-08-05T04:36:58.187Z,12.57
2022-08-05T04:39:25.341Z,13.57
2022-08-05T04:41:55.443Z,15.23
2022-08-05T04:44:29.283Z,13.33
2022-08-05T04:46:57.051Z,17.03
2022-08-05T04:49:38.863Z,13.83
2022-08-05T04:52:13.171Z,14.53
2022-08-05T04:54:40.447Z,12.67
2022-08-05T04:57:07.604Z,14.43
2022-08-05T04:59:38.807Z,14.77
2022-08-05T05:02:36.572Z,14.53
2022-08-05T05:05:02.339Z,14.50
2022-08-05T05:07:32.713Z,15.37
2022-08-05T05:10:04.314Z,15.27
2022-08-05T05:12:31.513Z,15.80
2022-08-05T05:14:58.757Z,15.13
2022-08-05T05:17:56.314Z,20.93
2022-08-05T05:20:13.671Z,30.17
2022-08-05T05:22:43.967Z,15.30
2022-08-05T05:25:16.600Z,16.20
2022-08-05T05:27:53.493Z,15.03
2022-08-05T05:30:31.427Z,15.83
2022-08-05T05:33:03.579Z,16.23
2022-08-05T05:35:43.772Z,34.83
2022-08-05T05:38:13.332Z,23.10
2022-08-05T05:40:48.313Z,14.90
2022-08-05T05:43:27.591Z,14.13
2022-08-05T05:46:07.643Z,15.73
2022-08-05T05:48:44.478Z,14.20
2022-08-05T05:51:15.238Z,14.27
2022-08-05T05:53:54.167Z,14.47
2022-08-05T05:56:32.585Z,105.80
2022-08-05T05:59:03.394Z,19.57
2022-08-05T06:01:37.847Z,19.17
2022-08-05T06:04:14.381Z,19.13
2022-08-05T06:06:47.493Z,19.03
2022-08-05T06:09:16.712Z,19.43
2022-08-05T06:12:02.080Z,21.70
2022-08-05T06:14:34.849Z,21.90
2022-08-05T06:17:22.031Z,23.13
2022-08-05T06:19:56.317Z,21.80
2022-08-05T06:22:28.098Z,23.50
2022-08-05T06:24:55.215Z,24.70
2022-08-05T06:28:11.763Z,28.80
2022-08-05T06:30:18.135Z,30.37
2022-08-05T06:32:48.315Z,23.57
2022-08-05T06:36:04.036Z,23.53
2022-08-05T06:38:08.337Z,21.63
2022-08-05T06:40:42.170Z,22.70
2022-08-05T06:43:58.190Z,22.87
2022-08-05T06:46:06.634Z,22.13
2022-08-05T06:48:53.518Z,62.37
2022-08-05T06:51:29.453Z,30.17
2022-08-05T06:53:58.703Z,25.47
2022-08-05T06:56:27.019Z,24.77
2022-08-05T06:58:54.424Z,26.43
2022-08-05T07:01:21.705Z,24.37
2022-08-05T07:03:49.857Z,23.37
2022-08-05T07:06:19.186Z,27.77
2022-08-05T07:08:53.174Z,23.87
2022-08-05T07:11:25.366Z,26.43
2022-08-05T07:14:20.027Z,24.83
2022-08-05T07:18:00.458Z,28.23
2022-08-05T07:22:28.308Z,28.07
2022-08-05T07:24:57.737Z,30.33
2022-08-05T07:27:27.531Z,30.97
2022-08-05T07:30:22.919Z,32.83
2022-08-05T07:32:58.010Z,35.87
2022-08-05T07:36:04.850Z,41.50
2022-08-05T07:38:32.273Z,37.17
2022-08-05T07:41:04.482Z,40.67
2022-08-05T07:43:46.621Z,39.03
2022-08-05T07:46:24.830Z,41.60
2022-08-05T07:49:03.026Z,38.20
2022-08-05T07:51:36.901Z,36.43
2022-08-05T07:54:05.471Z,41.03
2022-08-05T07:57:00.442Z,40.60
2022-08-05T07:59:23.311Z,38.43
2022-08-05T08:02:07.528Z,46.57
2022-08-05T08:04:45.103Z,45.37
2022-08-05T08:07:12.742Z,56.23
2022-08-05T08:09:39.853Z,54.33
2022-08-05T08:12:14.626Z,60.63
2022-08-05T08:14:53.597Z,59.97
2022-08-05T08:17:21.809Z,58.40
2022-08-05T08:20:23.516Z,54.70
2022-08-05T08:22:36.651Z,52.27
2022-08-05T08:25:04.069Z,36.07
2022-08-05T08:27:47.301Z,26.03
2022-08-05T08:30:29.433Z,24.93
2022-08-05T08:33:04.520Z,22.37
2022-08-05T08:35:41.487Z,23.40
2022-08-05T08:38:35.123Z,24.37
2022-08-05T08:41:05.305Z,28.47
2022-08-05T08:45:18.857Z,27.13
2022-08-05T08:46:22.055Z,26.77
2022-08-05T08:49:07.764Z,29.70
2022-08-05T08:52:02.955Z,29.30
2022-08-05T08:54:27.354Z,27.63
2022-08-05T08:56:56.642Z,22.60
2022-08-05T08:59:27.504Z,27.63
2022-08-05T09:02:01.350Z,24.97
2022-08-05T09:04:30.609Z,24.30
2022-08-05T09:06:58.484Z,24.63
2022-08-05T09:09:32.459Z,26.63
2022-08-05T09:12:14.420Z,30.27
2022-08-05T09:14:56.411Z,28.97
2022-08-05T09:17:42.618Z,28.50
2022-08-05T09:20:36.354Z,27.87
2022-08-05T09:23:05.431Z,21.80
2022-08-05T09:26:01.167Z,27.20
2022-08-05T09:28:24.287Z,28.07
2022-08-05T09:31:22.199Z,29.00
2022-08-05T09:33:56.559Z,32.70
2022-08-05T09:36:27.381Z,38.13
2022-08-05T09:39:16.481Z,36.87
2022-08-05T09:41:58.661Z,37.93
2022-08-05T09:44:38.791Z,34.63
2022-08-05T09:47:24.851Z,32.03
2022-08-05T09:50:00.616Z,28.80
2022-08-05T09:52:28.917Z,27.27
2022-08-05T09:54:57.241Z,28.10
2022-08-05T09:57:35.148Z,27.97
2022-08-05T10:00:19.062Z,27.27
2022-08-05T10:02:50.498Z,30.67
2022-08-05T10:05:36.049Z,25.33
2022-08-05T10:08:36.878Z,21.33
2022-08-05T10:10:54.185Z,20.37
2022-08-05T10:13:31.784Z,17.60
2022-08-05T10:16:30.965Z,17.67
2022-08-05T10:18:59.858Z,17.10
2022-08-05T10:21:35.303Z,14.43
2022-08-05T10:24:11.130Z,12.37
2022-08-05T10:26:51.170Z,11.77
2022-08-05T10:29:23.930Z,10.40
2022-08-05T10:32:52.206Z,10.23
2022-08-05T10:34:57.500Z,10.83
2022-08-05T10:37:41.368Z,9.17
2022-08-05T10:40:22.352Z,9.80
2022-08-05T10:42:56.812Z,10.23
2022-08-05T10:45:40.473Z,9.87
2022-08-05T10:48:29.848Z,9.80
2022-08-05T10:51:00.642Z,8.43
2022-08-05T10:53:38.022Z,8.33
2022-08-05T10:56:21.089Z,9.03
2022-08-05T10:58:55.729Z,9.83
2022-08-05T11:01:55.033Z,10.87
2022-08-05T11:04:26.196Z,11.53
2022-08-05T11:07:04.746Z,11.67
2022-08-05T11:09:48.045Z,10.67
2022-08-05T11:12:27.283Z,9.30
2022-08-05T11:15:19.312Z,9.73
2022-08-05T11:17:59.953Z,11.23
2022-08-05T11:20:39.131Z,9.37
2022-08-05T11:23:33.678Z,10.20
2022-08-05T11:26:28.327Z,14.13
2022-08-05T11:29:06.946Z,11.13
2022-08-05T11:31:53.965Z,12.27
2022-08-05T11:34:51.393Z,11.10
2022-08-05T11:38:28.674Z,11.27
2022-08-05T11:40:47.693Z,13.00
2022-08-05T11:43:58.464Z,11.47
2022-08-05T11:46:16.108Z,10.60
2022-08-05T11:48:57.201Z,13.23
2022-08-05T11:51:44.776Z,9.20
2022-08-05T11:54:16.260Z,10.10
2022-08-05T11:56:50.338Z,9.43
2022-08-05T11:59:29.993Z,8.43
2022-08-05T12:02:30.920Z,9.77
2022-08-05T12:05:00.942Z,9.65
2022-08-05T12:08:08.694Z,9.20
2022-08-05T12:10:21.665Z,8.05
2022-08-05T12:12:59.783Z,8.02
2022-08-05T12:15:38.086Z,7.20
2022-08-05T12:18:12.003Z,7.47
2022-08-05T12:20:40.629Z,9.48
2022-08-05T12:23:09.738Z,8.68
2022-08-05T12:25:50.083Z,7.03
2022-08-05T12:28:36.999Z,6.68
2022-08-05T12:31:05.215Z,6.00
2022-08-05T12:33:37.194Z,5.45
2022-08-05T12:36:09.734Z,6.57
2022-08-05T12:38:40.403Z,6.07
2022-08-05T12:41:13.811Z,5.88
2022-08-05T12:43:57.856Z,5.63
2022-08-05T12:46:31.154Z,6.13
2022-08-05T12:49:13.291Z,5.82
2022-08-05T12:52:12.897Z,5.90
2022-08-05T12:54:34.300Z,6.07
2022-08-05T12:57:02.705Z,6.03
2022-08-05T13:00:08.723Z,5.43
2022-08-05T13:02:27.234Z,5.97
2022-08-05T13:04:55.504Z,8.07
2022-08-05T13:07:55.906Z,6.60
2022-08-05T13:10:19.979Z,6.13
2022-08-05T13:12:51.295Z,5.65
2022-08-05T13:15:41.225Z,6.25
2022-08-05T13:18:19.826Z,5.70
2022-08-05T13:20:49.114Z,5.93
2022-08-05T13:23:22.080Z,5.15
2022-08-05T13:25:52.816Z,5.93
2022-08-05T13:28:26.961Z,5.30
2022-08-05T13:30:54.115Z,6.35
2022-08-05T13:34:21.228Z,4.75
2022-08-05T13:36:13.166Z,4.70
2022-08-05T13:38:42.719Z,7.80
2022-08-05T13:41:10.868Z,6.93
2022-08-05T13:43:44.130Z,6.18
2022-08-05T13:46:50.671Z,6.15
2022-08-05T13:49:10.044Z,5.65
2022-08-05T13:51:40.112Z,10.88
2022-08-05T13:54:12.352Z,8.43
2022-08-05T13:56:45.487Z,4.47
2022-08-05T13:59:20.907Z,4.07
2022-08-05T14:01:56.471Z,3.85
2022-08-05T14:04:49.565Z,5.03
2022-08-05T14:07:55.363Z,4.18
2022-08-05T14:10:08.459Z,5.10
2022-08-05T14:12:36.307Z,4.13
2022-08-05T14:16:03.807Z,3.97
2022-08-05T14:17:50.799Z,4.65
2022-08-05T14:20:27.311Z,5.40
2022-08-05T14:22:54.867Z,4.35
2022-08-05T14:25:28.246Z,6.00
2022-08-05T14:27:58.274Z,5.55
2022-08-05T14:30:26.675Z,4.25
2022-08-05T14:32:55.068Z,3.85
2022-08-05T14:35:24.100Z,4.35
2022-08-05T14:38:04.944Z,4.50
2022-08-05T14:40:32.032Z,4.88
2022-08-05T14:43:01.509Z,5.15
2022-08-05T14:45:28.696Z,5.38
2022-08-05T14:48:03.748Z,3.38
2022-08-05T14:50:33.147Z,4.07
2022-08-05T14:53:06.895Z,3.45
2022-08-05T14:55:39.314Z,3.92
2022-08-05T14:58:11.611Z,2.97
2022-08-05T15:00:57.921Z,2.55
2022-08-05T15:03:27.805Z,3.47
2022-08-05T15:06:08.294Z,3.30
2022-08-05T15:09:01.072Z,2.40
2022-08-05T15:11:51.540Z,3.72
2022-08-05T15:14:33.445Z,2.38
2022-08-05T15:17:03.905Z,2.45
2022-08-05T15:19:31.246Z,2.53
2022-08-05T15:22:00.447Z,3.72
2022-08-05T15:24:28.572Z,3.35
2022-08-05T15:26:57.074Z,2.28
2022-08-05T15:29:29.723Z,1.67
2022-08-05T15:31:57.674Z,4.57
2022-08-05T15:34:32.037Z,2.15
2022-08-05T15:37:06.405Z,1.92
2022-08-05T15:41:04.794Z,3.10
2022-08-05T15:42:56.124Z,3.83
2022-08-05T15:45:16.779Z,2.13
2022-08-05T15:47:46.265Z,2.15
2022-08-05T15:50:15.809Z,1.38
2022-08-05T15:52:52.642Z,3.45
2022-08-05T15:55:24.917Z,1.38
2022-08-05T15:58:09.940Z,1.73
2022-08-05T16:01:03.563Z,3.45
2022-08-05T16:03:32.595Z,1.92
2022-08-05T16:06:00.988Z,2.97
2022-08-05T16:08:38.838Z,3.45
2022-08-05T16:11:08.053Z,2.50
2022-08-05T16:13:35.509Z,1.50
2022-08-05T16:16:03.755Z,3.88
2022-08-05T16:18:32.749Z,3.13
2022-08-05T16:21:04.629Z,1.35
2022-08-05T16:23:53.274Z,1.75
2022-08-05T16:26:20.083Z,2.30
2022-08-05T16:28:53.604Z,2.22
2022-08-05T16:31:21.758Z,2.53
2022-08-05T16:33:49.055Z,2.70
2022-08-05T16:36:20.442Z,1.67
2022-08-05T16:38:54.739Z,2.25
2022-08-05T16:42:14.938Z,2.58
2022-08-05T16:44:16.542Z,1.98
2022-08-05T16:46:55.684Z,3.10
2022-08-05T16:49:23.632Z,2.03
2022-08-05T16:51:54.742Z,1.60
2022-08-05T16:54:27.509Z,5.18
2022-08-05T16:56:57.569Z,2.63
2022-08-05T16:59:25.164Z,2.40
2022-08-05T17:01:55.948Z,3.00
2022-08-05T17:04:27.974Z,1.65
2022-08-05T17:07:00.151Z,1.85
2022-08-05T17:09:28.121Z,2.40
2022-08-05T17:11:59.613Z,2.45
2022-08-05T17:14:37.698Z,2.85
2022-08-05T17:17:05.989Z,1.42
2022-08-05T17:19:33.847Z,1.10
2022-08-05T17:22:01.293Z,1.20
2022-08-05T17:24:38.985Z,1.92
2022-08-05T17:27:12.525Z,1.02
2022-08-05T17:29:43.376Z,1.42
2022-08-05T17:32:17.240Z,1.40
2022-08-05T17:34:46.253Z,1.85
2022-08-05T17:37:39.647Z,1.33
2022-08-05T17:40:03.162Z,1.42
2022-08-05T17:42:32.335Z,1.20
2022-08-05T17:45:18.250Z,1.23
2022-08-05T17:47:53.031Z,4.68
2022-08-05T17:50:28.637Z,4.83
2022-08-05T17:52:58.595Z,1.50
2022-08-05T17:55:34.612Z,1.17
2022-08-05T17:58:09.616Z,1.15
2022-08-05T18:00:44.346Z,1.27
2022-08-05T18:03:12.127Z,1.25
2022-08-05T18:05:55.546Z,2.72
2022-08-05T18:08:28.601Z,2.05
2022-08-05T18:10:57.402Z,1.10
2022-08-05T18:13:25.746Z,4.00
2022-08-05T18:15:53.105Z,2.22
2022-08-05T18:18:21.811Z,3.67
2022-08-05T18:20:53.554Z,4.28
2022-08-05T18:23:22.297Z,4.80
2022-08-05T18:25:57.854Z,1.75
2022-08-05T18:28:28.223Z,3.20
2022-08-05T18:30:55.695Z,4.13
2022-08-05T18:33:24.064Z,1.42
2022-08-05T18:36:03.229Z,1.33
2022-08-05T18:38:32.516Z,1.00
2022-08-05T18:41:53.513Z,0.80
2022-08-05T18:43:49.124Z,4.80
2022-08-05T18:46:20.277Z,9.50
2022-08-05T18:48:51.644Z,1.53
2022-08-05T18:52:03.975Z,1.20
2022-08-05T18:54:31.307Z,1.97
2022-08-05T18:56:59.648Z,1.87
2022-08-05T18:59:44.228Z,1.70
2022-08-05T19:02:26.592Z,1.43
2022-08-05T19:05:03.235Z,3.13
2022-08-05T19:07:45.935Z,0.73
2022-08-05T19:10:14.757Z,0.80
2022-08-05T19:12:43.186Z,1.17
2022-08-05T19:15:57.676Z,2.20
2022-08-05T19:18:08.596Z,2.63
2022-08-05T19:20:37.211Z,1.97
2022-08-05T19:24:05.010Z,1.93
2022-08-05T19:26:01.606Z,1.87
2022-08-05T19:28:29.687Z,2.53
2022-08-05T19:30:56.833Z,2.80
2022-08-05T19:33:35.415Z,2.13
2022-08-05T19:36:06.973Z,3.33
2022-08-05T19:38:37.693Z,10.00
2022-08-05T19:41:07.096Z,8.70
2022-08-05T19:44:05.777Z,1.50
2022-08-05T19:46:29.152Z,6.73
2022-08-05T19:48:58.099Z,3.03
2022-08-05T19:52:04.300Z,2.27
2022-08-05T19:54:27.197Z,1.00
2022-08-05T19:57:06.698Z,3.97
2022-08-05T19:59:54.836Z,1.33
2022-08-05T20:02:26.019Z,1.97
2022-08-05T20:04:55.314Z,1.77
2022-08-05T20:07:48.276Z,1.40
2022-08-05T20:10:13.197Z,0.77
2022-08-05T20:12:47.616Z,1.80
2022-08-05T20:15:22.737Z,4.73
2022-08-05T20:18:04.347Z,1.20
2022-08-05T20:20:38.224Z,5.33
2022-08-05T20:23:05.871Z,1.20
2022-08-05T20:25:39.869Z,1.30
2022-08-05T20:28:08.223Z,1.60
2022-08-05T20:30:41.895Z,2.00
2022-08-05T20:33:09.056Z,2.33
2022-08-05T20:35:40.427Z,2.03
2022-08-05T20:38:14.388Z,1.03
2022-08-05T20:40:50.529Z,1.27
2022-08-05T20:43:33.235Z,1.90
2022-08-05T20:46:06.686Z,3.07
2022-08-05T20:48:36.348Z,1.67
2022-08-05T20:51:07.252Z,2.10
2022-08-05T20:53:36.828Z,1.63
2022-08-05T20:56:09.729Z,2.00
2022-08-05T20:58:37.147Z,1.33
2022-08-05T21:01:04.969Z,2.17
2022-08-05T21:03:34.161Z,1.10
2022-08-05T21:06:02.279Z,0.80
2022-08-05T21:08:41.777Z,4.17
2022-08-05T21:12:06.493Z,2.00
2022-08-05T21:14:00.495Z,2.53
2022-08-05T21:16:30.807Z,2.57
2022-08-05T21:19:01.896Z,1.53
2022-08-05T21:21:44.123Z,0.70
2022-08-05T21:24:17.120Z,2.83
2022-08-05T21:26:56.168Z,2.77
2022-08-05T21:29:32.236Z,2.00
2022-08-05T21:31:59.690Z,2.53
2022-08-05T21:34:28.279Z,1.13
2022-08-05T21:36:58.698Z,1.17
2022-08-05T21:39:27.115Z,1.73
2022-08-05T21:42:01.476Z,0.90
2022-08-05T21:44:29.757Z,3.60
2022-08-05T21:46:58.287Z,1.07
2022-08-05T21:49:58.637Z,1.03
2022-08-05T21:52:22.768Z,2.53
2022-08-05T21:54:56.028Z,1.60
2022-08-05T21:57:32.077Z,1.30
2022-08-05T22:00:11.125Z,2.60
2022-08-05T22:02:38.764Z,4.97
2022-08-05T22:05:06.154Z,1.13
2022-08-05T22:07:39.864Z,2.07
2022-08-05T22:10:26.680Z,1.07
2022-08-05T22:12:54.884Z,1.90
2022-08-05T22:16:02.533Z,1.83
2022-08-05T22:18:11.792Z,1.30
2022-08-05T22:20:39.842Z,2.03
2022-08-05T22:24:01.815Z,1.67
2022-08-05T22:26:31.724Z,1.93
2022-08-05T22:29:00.705Z,1.20
2022-08-05T22:31:29.965Z,1.90
2022-08-05T22:34:01.210Z,1.07
2022-08-05T22:36:29.412Z,2.20
2022-08-05T22:38:57.053Z,3.53
2022-08-05T22:42:11.590Z,2.40
2022-08-05T22:44:19.151Z,1.70
2022-08-05T22:46:46.624Z,1.10
2022-08-05T22:50:17.562Z,0.90
2022-08-05T22:52:06.327Z,1.53
2022-08-05T22:54:35.303Z,1.30
2022-08-05T22:57:02.814Z,1.83
2022-08-05T22:59:44.201Z,1.80
2022-08-05T23:02:13.619Z,1.87
2022-08-05T23:04:51.183Z,1.73
2022-08-05T23:07:18.900Z,1.40
2022-08-05T23:09:57.782Z,2.37
2022-08-05T23:12:32.461Z,3.70
2022-08-05T23:15:00.351Z,1.83
2022-08-05T23:17:34.178Z,1.43
2022-08-05T23:20:06.458Z,3.87
2022-08-05T23:22:44.050Z,2.67
2022-08-05T23:25:17.564Z,2.60
2022-08-05T23:28:02.316Z,2.97
2022-08-05T23:30:31.329Z,5.67
2022-08-05T23:32:58.838Z,3.00
2022-08-05T23:35:28.628Z,3.70
2022-08-05T23:38:01.853Z,3.13
2022-08-05T23:40:29.056Z,2.77
2022-08-05T23:42:56.249Z,2.10
2022-08-05T23:45:23.596Z,1.83
2022-08-05T23:47:53.681Z,4.70
2022-08-05T23:50:26.695Z,2.03
2022-08-05T23:52:55.275Z,2.77
2022-08-05T23:55:24.624Z,4.53
2022-08-05T23:57:58.340Z,2.80
